Time;durP1;ratioP1;P1;durP2;ratioP2;P2;SDS_P1;SDS_P2;PMS_P1;PMS_P2;Temp;Humidity;BMP_temperature;BMP_pressure;BME280_temperature;BME280_humidity;BME280_pressure;Samples;Min_cycle;Max_cycle;Signal;HPM_P1;HPM_P2
2021/11/20 00:01:22;;;;;;;;;15.25;14.00;;;;;12.02;68.51;102241.59;5014915;28;45606;-84
2021/11/20 00:03:49;;;;;;;;;12.00;10.50;;;;;12.01;68.59;102249.53;5017520;28;45746;-84
2021/11/20 00:06:21;;;;;;;;;14.50;12.25;;;;;12.07;68.84;102260.59;5000572;28;46809;-83
2021/11/20 00:08:47;;;;;;;;;12.75;10.25;;;;;12.04;68.67;102260.72;5015921;28;45669;-83
2021/11/20 00:11:14;;;;;;;;;14.00;11.00;;;;;12.03;68.82;102251.16;5015454;28;45617;-84
2021/11/20 00:13:42;;;;;;;;;9.00;8.00;;;;;11.98;68.69;102250.56;5015745;28;45672;-87
2021/11/20 00:16:09;;;;;;;;;9.75;8.75;;;;;11.90;69.06;102236.94;5015610;28;45651;-86
2021/11/20 00:18:36;;;;;;;;;7.00;6.50;;;;;11.89;68.90;102231.75;4997780;28;48267;-83
2021/11/20 00:21:06;;;;;;;;;8.50;8.00;;;;;12.01;69.11;102242.50;5016057;28;45740;-85
2021/11/20 00:23:39;;;;;;;;;8.00;8.00;;;;;11.92;69.08;102232.47;5016223;28;45465;-86
2021/11/20 00:26:08;;;;;;;;;12.00;9.75;;;;;11.75;69.25;102206.22;5019761;28;45612;-85
2021/11/20 00:28:54;;;;;;;;;11.25;10.00;;;;;11.93;69.39;102238.56;5019967;28;46160;-85
2021/11/20 00:31:21;;;;;;;;;9.25;7.75;;;;;11.92;69.45;102231.63;5020330;28;45687;-83
2021/11/20 00:33:47;;;;;;;;;9.25;7.25;;;;;11.90;69.28;102226.44;5020720;28;45626;-86
2021/11/20 00:36:13;;;;;;;;;8.25;5.50;;;;;11.96;69.37;102228.75;5001158;28;45708;-80
2021/11/20 00:38:39;;;;;;;;;11.00;8.00;;;;;11.97;69.20;102226.97;5018337;28;46877;-87
2021/11/20 00:41:12;;;;;;;;;10.00;9.75;;;;;11.94;69.56;102237.63;5018859;28;45738;-83
2021/11/20 00:43:39;;;;;;;;;12.00;9.00;;;;;11.89;69.58;102224.72;5001131;28;45544;-83
2021/11/20 00:46:05;;;;;;;;;10.75;9.75;;;;;11.75;69.64;102209.69;5019766;28;45727;-83
2021/11/20 00:48:31;;;;;;;;;12.50;9.75;;;;;11.82;69.75;102228.63;5019387;28;46406;-83
2021/11/20 00:54:19;;;;;;;;;16.25;14.00;;;;;11.71;69.85;102202.84;5021075;28;45721;-82
2021/11/20 00:56:46;;;;;;;;;10.00;10.00;;;;;11.81;69.99;102211.16;5021098;28;46413;-83
2021/11/20 00:59:11;;;;;;;;;11.50;11.25;;;;;11.83;69.99;102208.44;5020113;28;45727;-84
2021/11/20 01:01:51;;;;;;;;;13.50;10.75;;;;;11.76;70.22;102192.16;5017701;28;45742;-84
2021/11/20 01:04:17;;;;;;;;;15.75;10.75;;;;;11.82;70.12;102201.50;5017955;28;45465;-83
2021/11/20 01:06:45;;;;;;;;;13.75;9.50;;;;;11.70;69.95;102179.31;5017075;28;46430;-82
2021/11/20 01:09:14;;;;;;;;;13.75;11.00;;;;;11.85;70.27;102203.97;5016828;28;46241;-89
2021/11/20 01:11:48;;;;;;;;;11.50;10.00;;;;;11.73;70.14;102180.03;5010898;22;47772;-82
2021/11/20 01:14:15;;;;;;;;;14.00;13.00;;;;;11.89;70.35;102205.50;4992682;28;46297;-80
2021/11/20 01:16:43;;;;;;;;;7.50;4.50;;;;;11.89;70.20;102201.09;4993054;28;48001;-80
2021/11/20 01:19:11;;;;;;;;;16.75;12.00;;;;;11.85;70.22;102198.72;4978274;28;46422;-80
2021/11/20 01:21:38;;;;;;;;;15.00;14.25;;;;;11.75;69.97;102177.31;4999075;28;46091;-80
2021/11/20 01:24:06;;;;;;;;;14.25;13.50;;;;;11.61;69.97;102151.72;4999346;28;45659;-85
2021/11/20 01:26:32;;;;;;;;;16.00;12.00;;;;;11.74;70.16;102176.47;5001164;28;47517;-80
2021/11/20 01:28:59;;;;;;;;;11.25;10.25;;;;;11.59;69.84;102150.97;5000832;28;46066;-81
2021/11/20 01:31:29;;;;;;;;;17.50;13.00;;;;;11.66;70.14;102162.84;4997428;28;47311;-80
2021/11/20 01:33:55;;;;;;;;;13.25;11.75;;;;;11.52;70.20;102156.59;4993279;28;45881;-81
2021/11/20 01:36:25;;;;;;;;;12.25;11.25;;;;;11.77;70.12;102185.94;4993599;28;46475;-80
2021/11/20 01:38:53;;;;;;;;;15.75;14.00;;;;;11.67;70.22;102163.69;4992922;28;48323;-81
2021/11/20 01:41:21;;;;;;;;;20.00;16.00;;;;;11.64;70.12;102156.84;4992300;28;45902;-79
2021/11/20 01:43:53;;;;;;;;;19.75;15.50;;;;;11.81;69.98;102178.78;4994316;28;45732;-81
2021/11/20 01:46:24;;;;;;;;;20.00;17.75;;;;;11.74;70.33;102168.59;4992127;28;46660;-79
2021/11/20 01:48:55;;;;;;;;;24.25;19.25;;;;;11.71;70.13;102168.69;4991104;28;46994;-80
2021/11/20 01:51:23;;;;;;;;;20.75;17.75;;;;;11.69;70.41;102172.34;4992647;28;46501;-84
2021/11/20 01:54:10;;;;;;;;;17.25;14.25;;;;;11.66;70.31;102164.66;4996667;28;45671;-82
2021/11/20 01:57:00;;;;;;;;;17.75;17.00;;;;;11.65;70.47;102163.78;4986149;28;46348;-84
2021/11/20 01:59:56;;;;;;;;;19.25;16.00;;;;;11.63;70.46;102164.78;4993829;28;46718;-83
2021/11/20 02:02:31;;;;;;;;;17.50;15.00;;;;;11.59;70.47;102164.09;4954304;28;46042;-89
2021/11/20 02:05:22;;;;;;;;;19.50;18.25;;;;;11.54;70.64;102163.47;4958160;28;45863;-81
2021/11/20 02:08:16;;;;;;;;;19.75;16.75;;;;;11.53;70.63;102168.78;4951813;28;45826;-81
2021/11/20 02:10:59;;;;;;;;;22.50;19.00;;;;;11.44;70.73;102154.38;4934573;28;47163;-86
2021/11/20 02:13:34;;;;;;;;;26.75;21.50;;;;;11.36;70.68;102135.50;4955867;28;45950;-87
2021/11/20 02:16:10;;;;;;;;;17.75;16.00;;;;;11.54;70.75;102160.84;4975179;28;45786;-79
2021/11/20 02:18:43;;;;;;;;;23.50;18.25;;;;;11.33;70.75;102112.06;4961055;28;46756;-81
2021/11/20 02:21:23;;;;;;;;;16.75;15.00;;;;;11.62;70.54;102155.19;4952488;28;46343;-81
2021/11/20 02:23:48;;;;;;;;;16.75;14.50;;;;;11.57;70.79;102150.19;4950326;28;45837;-80
2021/11/20 02:26:14;;;;;;;;;15.67;14.33;;;;;11.60;70.74;102155.28;4952157;28;45990;-80
2021/11/20 02:28:39;;;;;;;;;14.00;13.33;;;;;11.63;70.66;102157.75;4947005;28;45942;-82
2021/11/20 02:31:05;;;;;;;;;28.50;16.50;;;;;11.62;70.70;102158.69;4941740;28;46173;-81
2021/11/20 02:33:42;;;;;;;;;19.25;16.00;;;;;11.62;70.76;102155.19;4952172;28;46398;-82
2021/11/20 02:37:07;;;;;;;;;31.50;26.75;;;;;11.59;70.59;102148.34;4955168;28;46116;-86
2021/11/20 02:39:58;;;;;;;;;22.50;20.25;;;;;11.41;70.33;102106.41;4987503;28;46422;-89
2021/11/20 02:42:24;;;;;;;;;37.25;31.75;;;;;11.31;70.25;102099.03;4958228;28;45846;-81
2021/11/20 02:44:50;;;;;;;;;25.50;22.00;;;;;11.25;70.50;102088.81;4968989;28;45672;-81
2021/11/20 02:47:26;;;;;;;;;19.25;16.25;;;;;11.60;70.47;102139.56;4953530;28;46732;-81
2021/11/20 02:50:43;;;;;;;;;;;;;;;;;;;;;
2021/11/20 02:53:17;;;;;;;;;20.00;15.75;;;;;11.64;70.30;102125.34;4899428;28;76298;-80
2021/11/20 02:55:48;;;;;;;;;27.25;27.25;;;;;11.51;70.49;102098.00;4890074;29;46107;-80
2021/11/20 02:58:17;;;;;;;;;15.75;14.50;;;;;11.67;70.32;102130.41;4894333;28;45740;-81
2021/11/20 03:00:43;;;;;;;;;20.00;16.75;;;;;11.59;70.27;102124.72;4876455;29;46611;-82
2021/11/20 03:03:09;;;;;;;;;25.50;24.75;;;;;11.57;70.43;102112.59;4892770;29;47088;-80
2021/11/20 03:05:34;;;;;;;;;41.25;33.75;;;;;11.64;70.28;102114.84;4898221;28;45581;-80
2021/11/20 03:08:00;;;;;;;;;48.00;38.50;;;;;11.65;70.32;102105.19;4897734;29;45711;-82
2021/11/20 03:10:26;;;;;;;;;18.50;18.00;;;;;11.65;70.33;102108.66;4895768;28;46450;-79
2021/11/20 03:12:51;;;;;;;;;38.75;32.50;;;;;11.63;70.36;102099.16;4881792;28;47393;-86
2021/11/20 03:15:17;;;;;;;;;22.50;20.50;;;;;11.39;70.34;102061.06;4896036;29;46198;-79
2021/11/20 03:17:43;;;;;;;;;19.75;15.75;;;;;11.54;70.10;102086.50;4892803;28;45838;-78
2021/11/20 03:20:51;;;;;;;;;;;;;;;;;;;;;
2021/11/20 03:24:14;;;;;;;;;;;;;;;;;;;;;
2021/11/20 03:26:43;;;;;;;;;25.25;20.50;;;;;11.20;70.24;102013.91;4819742;29;71722;-85
2021/11/20 03:42:05;;;;;;;;;10.50;8.50;;;;;11.19;69.95;102034.03;2371139;26;47574;-82
2021/11/20 03:44:31;;;;;;;;;14.50;9.25;;;;;11.24;70.17;102039.06;4969853;28;45707;-84
2021/11/20 03:47:17;;;;;;;;;13.00;10.50;;;;;11.14;69.99;102014.22;4971698;28;45825;-84
2021/11/20 03:50:31;;;;;;;;;11.00;8.75;;;;;10.81;69.94;101975.66;4939121;28;45954;-88
2021/11/20 03:52:57;;;;;;;;;9.25;7.50;;;;;11.03;69.99;102021.78;4898375;29;46771;-80
2021/11/20 03:55:31;;;;;;;;;10.50;9.00;;;;;11.10;70.27;102028.41;4877129;29;46242;-85
2021/11/20 03:57:57;;;;;;;;;9.75;9.25;;;;;11.21;70.39;102047.94;4894246;29;46205;-80
2021/11/20 04:00:25;;;;;;;;;8.00;8.00;;;;;11.22;70.31;102038.31;4875367;29;46126;-84
2021/11/20 04:02:51;;;;;;;;;7.75;6.00;;;;;11.06;70.16;102019.00;4891922;29;45815;-81
2021/11/20 04:05:22;;;;;;;;;11.25;6.25;;;;;11.15;70.35;102042.16;4891536;29;46169;-81
2021/11/20 04:07:49;;;;;;;;;10.25;9.25;;;;;11.13;70.42;102038.75;4885640;28;45780;-82
2021/11/20 04:10:16;;;;;;;;;9.75;8.25;;;;;11.14;70.31;102043.06;4892373;29;45842;-81
2021/11/20 04:12:41;;;;;;;;;9.00;8.75;;;;;11.04;71.02;102040.06;4893302;29;45714;-81
2021/11/20 04:15:10;;;;;;;;;9.50;9.00;;;;;11.03;70.83;102030.50;4894345;29;45782;-83
2021/11/20 04:17:36;;;;;;;;;10.75;8.25;;;;;11.02;71.00;102031.41;4895021;29;46081;-82
2021/11/20 04:20:06;;;;;;;;;8.00;7.75;;;;;11.00;71.06;102021.94;4894492;29;45911;-82
2021/11/20 04:22:31;;;;;;;;;9.75;8.25;;;;;10.98;71.17;102018.53;4879075;29;46601;-80
2021/11/20 04:24:57;;;;;;;;;8.75;7.00;;;;;10.84;71.29;102003.50;4893965;29;46005;-84
2021/11/20 04:27:22;;;;;;;;;9.25;8.25;;;;;10.93;71.44;102022.25;4907274;28;45661;-82
2021/11/20 04:29:48;;;;;;;;;10.75;9.50;;;;;10.97;71.40;102006.34;4949790;28;45834;-81
2021/11/20 04:32:13;;;;;;;;;8.25;7.00;;;;;10.81;71.49;101986.16;4970324;28;46551;-82
2021/11/20 04:34:39;;;;;;;;;6.00;4.00;;;;;10.84;71.28;101990.41;4973443;28;46471;-84
2021/11/20 04:38:34;;;;;;;;;6.00;4.00;;;;;10.88;71.50;102008.53;4976119;28;47195;-87
2021/11/20 04:41:27;;;;;;;;;5.50;4.00;;;;;10.90;71.38;102016.31;4918914;28;46107;-86
2021/11/20 04:44:21;;;;;;;;;3.75;3.50;;;;;10.28;71.20;101909.34;4869075;29;45811;-84
2021/11/20 04:47:41;;;;;;;;;3.75;3.25;;;;;10.90;71.11;101998.78;4860669;28;45680;-89
2021/11/20 04:51:18;;;;;;;;;;;;;;;;;;;;;
2021/11/20 04:54:23;;;;;;;;;6.00;4.00;;;;;10.70;70.78;101957.00;4939894;28;69368;-85
2021/11/20 04:59:24;;;;;;;;;3.25;3.25;;;;;10.40;70.71;101896.50;5127663;22;46205;-81
2021/11/20 05:01:57;;;;;;;;;6.25;5.00;;;;;10.33;70.32;101875.91;5015080;28;45657;-88
2021/11/20 05:04:23;;;;;;;;;3.50;3.00;;;;;11.00;70.20;101995.72;4994635;28;45506;-85
2021/11/20 05:06:57;;;;;;;;;6.50;3.25;;;;;10.32;70.55;101872.44;5011374;28;45746;-86
2021/11/20 05:09:23;;;;;;;;;6.50;6.00;;;;;10.31;70.37;101869.91;4998033;28;47068;-85
2021/11/20 05:11:53;;;;;;;;;7.00;6.00;;;;;10.27;70.37;101882.28;5003212;28;45662;-88
2021/11/20 05:14:19;;;;;;;;;7.00;6.00;;;;;10.30;70.38;101874.31;5018218;28;45913;-86
2021/11/20 05:16:47;;;;;;;;;8.25;7.25;;;;;10.41;70.46;101913.91;5010378;28;46364;-88
2021/11/20 05:19:12;;;;;;;;;7.00;6.00;;;;;10.89;70.59;101988.41;5012190;28;45632;-89
2021/11/20 05:21:38;;;;;;;;;9.25;6.50;;;;;10.67;70.66;101948.44;4998229;28;46182;-86
2021/11/20 05:24:07;;;;;;;;;7.75;6.00;;;;;10.55;70.63;101928.94;5021193;28;45694;-88
2021/11/20 05:26:32;;;;;;;;;9.00;8.00;;;;;10.50;70.75;101918.69;5020618;28;47775;-86
2021/11/20 05:29:05;;;;;;;;;7.75;6.75;;;;;10.82;70.57;101961.63;5016990;28;45770;-86
2021/11/20 05:31:36;;;;;;;;;8.25;7.00;;;;;10.83;70.87;101978.22;4981640;28;45971;-85
2021/11/20 05:34:03;;;;;;;;;6.00;4.75;;;;;10.59;71.16;101940.97;4993717;28;45771;-88
2021/11/20 05:36:43;;;;;;;;;5.50;4.25;;;;;10.26;70.97;101882.38;5017206;28;45740;-83
2021/11/20 05:39:08;;;;;;;;;8.00;6.50;;;;;10.71;70.79;101966.56;4998679;28;47705;-88
2021/11/20 05:41:36;;;;;;;;;8.75;6.50;;;;;10.65;70.91;101945.03;5010903;28;46770;-88
2021/11/20 05:44:02;;;;;;;;;7.25;6.25;;;;;10.74;70.75;101963.78;5004505;28;46405;-84
2021/11/20 05:46:31;;;;;;;;;7.00;6.00;;;;;10.39;71.16;101912.28;5002462;28;45815;-85
2021/11/20 05:48:56;;;;;;;;;8.50;7.25;;;;;10.70;71.18;101966.63;5008650;28;46546;-84
2021/11/20 05:51:41;;;;;;;;;8.75;7.00;;;;;10.46;71.14;101918.91;5009503;28;46109;-86
2021/11/20 05:54:07;;;;;;;;;7.00;6.00;;;;;10.58;71.04;101938.44;5015308;28;45655;-92
2021/11/20 05:56:33;;;;;;;;;10.50;9.00;;;;;10.68;71.11;101956.25;5004089;28;46542;-85
2021/11/20 05:58:59;;;;;;;;;8.00;7.00;;;;;10.66;71.26;101952.00;5012728;28;45810;-86
2021/11/20 06:01:25;;;;;;;;;8.00;7.00;;;;;10.72;71.19;101949.06;5008125;28;46004;-86
2021/11/20 06:03:53;;;;;;;;;9.50;7.00;;;;;10.63;71.36;101931.19;4992388;28;45726;-86
2021/11/20 06:06:22;;;;;;;;;9.50;8.00;;;;;10.58;71.03;101926.16;5009286;28;48403;-87
2021/11/20 06:08:48;;;;;;;;;9.25;8.25;;;;;10.67;71.12;101954.53;4995431;28;47308;-87
2021/11/20 06:11:15;;;;;;;;;11.75;7.00;;;;;10.82;70.84;101966.03;5009721;28;46061;-85
2021/11/20 06:13:40;;;;;;;;;11.75;8.00;;;;;10.41;71.04;101895.56;4993775;28;45863;-86
2021/11/20 06:16:06;;;;;;;;;9.00;6.75;;;;;10.45;70.96;101893.63;5010820;28;45754;-84
2021/11/20 06:18:35;;;;;;;;;8.00;7.00;;;;;10.34;70.86;101881.06;4989272;28;45767;-84
2021/11/20 06:21:03;;;;;;;;;6.00;6.00;;;;;10.81;70.95;101966.94;4995685;28;46074;-83
2021/11/20 06:23:32;;;;;;;;;8.00;6.50;;;;;10.60;70.97;101926.94;4990091;28;45818;-84
2021/11/20 06:25:58;;;;;;;;;8.00;6.75;;;;;10.86;70.77;101962.31;4992005;28;46322;-83
2021/11/20 06:28:25;;;;;;;;;6.00;5.00;;;;;10.76;70.97;101948.81;4989125;28;47350;-84
2021/11/20 06:30:54;;;;;;;;;8.25;7.25;;;;;10.88;70.74;101971.81;4997021;28;45922;-79
2021/11/20 06:33:34;;;;;;;;;7.25;6.50;;;;;10.22;70.79;101865.09;4994457;28;45861;-83
2021/11/20 06:36:29;;;;;;;;;6.75;6.75;;;;;10.64;71.02;101956.44;5009427;28;46041;-84
2021/11/20 06:39:29;;;;;;;;;6.00;2.00;;;;;10.49;71.20;101926.63;4920803;28;46850;-87
2021/11/20 06:45:32;;;;;;;;;9.00;4.00;;;;;10.10;71.22;101853.44;4920266;28;45788;-84
2021/11/20 06:48:16;;;;;;;;;4.00;3.75;;;;;10.55;71.32;101923.69;4921637;28;47025;-83
2021/11/20 06:50:43;;;;;;;;;8.50;6.25;;;;;10.71;71.41;101961.31;4921650;28;45912;-81
2021/11/20 06:53:22;;;;;;;;;7.00;6.00;;;;;10.45;71.52;101907.59;4916914;28;46049;-78
2021/11/20 06:55:47;;;;;;;;;6.00;4.00;;;;;10.74;71.41;101955.09;4899855;28;46055;-78
2021/11/20 07:00:45;;;;;;;;;6.00;6.00;;;;;10.11;71.23;101845.50;4909034;28;46129;-88
2021/11/20 07:03:18;;;;;;;;;8.50;7.00;;;;;10.82;71.55;101937.19;4908826;28;46552;-81
2021/11/20 07:09:17;;;;;;;;;11.00;7.50;;;;;10.11;71.24;101824.56;4842083;29;46043;-83
2021/11/20 07:11:43;;;;;;;;;13.75;11.25;;;;;10.59;71.57;101885.91;4830645;29;46071;-79
2021/11/20 07:14:39;;;;;;;;;8.50;7.00;;;;;10.82;71.30;101938.03;4842587;29;45467;-87
2021/11/20 07:17:05;;;;;;;;;10.00;8.00;;;;;10.21;71.59;101838.06;4911669;28;46330;-83
2021/11/20 07:22:59;;;;;;;;;12.50;11.25;;;;;10.24;71.73;101839.69;4834411;29;45924;-84
2021/11/20 07:25:52;;;;;;;;;12.75;9.50;;;;;10.67;71.33;101912.59;4835877;29;45805;-78
2021/11/20 07:28:18;;;;;;;;;8.75;8.00;;;;;10.51;71.05;101888.94;4748822;29;45876;-78
2021/11/20 07:30:45;;;;;;;;;13.75;9.75;;;;;10.79;71.17;101946.06;4749261;29;46129;-77
2021/11/20 07:33:14;;;;;;;;;8.50;7.00;;;;;10.82;71.02;101938.03;4749003;29;47224;-80
2021/11/20 07:35:55;;;;;;;;;7.00;7.00;;;;;10.86;71.08;101942.19;4764610;29;45233;-86
2021/11/20 07:38:42;;;;;;;;;7.75;7.75;;;;;10.82;71.02;101938.03;4762433;29;45165;-83
2021/11/20 07:41:24;;;;;;;;;9.25;8.50;;;;;10.73;70.82;101925.41;4762883;29;46035;-89
2021/11/20 07:44:15;;;;;;;;;11.25;8.75;;;;;10.49;70.80;101893.41;4792031;29;46884;-87
2021/11/20 07:46:41;;;;;;;;;8.25;8.00;;;;;10.69;70.81;101915.97;4802511;29;46279;-87
2021/11/20 07:49:11;;;;;;;;;12.00;9.50;;;;;10.24;70.78;101840.56;4808951;29;46108;-84
2021/11/20 07:55:22;;;;;;;;;11.00;8.50;;;;;10.71;71.10;101924.63;4727806;30;46050;-88
2021/11/20 07:58:06;;;;;;;;;10.25;9.00;;;;;10.93;70.98;101961.94;4693747;30;46361;-87
2021/11/20 08:00:33;;;;;;;;;12.00;11.00;;;;;10.96;70.86;101960.09;4713377;29;46162;-89
2021/11/20 08:03:51;;;;;;;;;11.50;9.75;;;;;10.96;71.05;101958.28;4740047;29;45900;-89
2021/11/20 08:09:12;;;;;;;;;12.00;10.25;;;;;10.97;71.25;101957.38;4833098;29;45828;-88
2021/11/20 08:12:26;;;;;;;;;11.50;10.00;;;;;10.97;71.08;101959.16;4840266;29;45968;-86
2021/11/20 08:15:11;;;;;;;;;10.50;9.25;;;;;10.76;71.02;101919.16;4843693;29;45737;-85
2021/11/20 08:17:45;;;;;;;;;13.00;10.00;;;;;10.83;70.81;101931.03;4847176;29;45968;-87
2021/11/20 08:23:42;;;;;;;;;12.25;11.50;;;;;11.08;70.80;101949.81;4799541;29;45516;-79
2021/11/20 08:26:13;;;;;;;;;11.75;9.75;;;;;11.12;70.84;101955.75;4795936;29;46493;-85
2021/11/20 08:28:45;;;;;;;;;9.00;8.50;;;;;10.90;70.70;101900.97;4791952;29;46303;-78
2021/11/20 08:32:03;;;;;;;;;13.75;11.25;;;;;10.51;70.70;101854.88;4839407;29;45888;-82
2021/11/20 08:34:40;;;;;;;;;10.00;9.50;;;;;10.52;70.67;101843.47;4797836;29;46632;-83
2021/11/20 08:37:09;;;;;;;;;18.50;13.50;;;;;10.36;70.94;101828.63;4801007;29;46529;-86
2021/11/20 08:39:53;;;;;;;;;13.75;11.00;;;;;10.35;70.83;101809.44;4815845;29;45562;-84
2021/11/20 08:42:41;;;;;;;;;;;;;;;;;;;;;
2021/11/20 08:45:10;;;;;;;;;9.75;9.75;;;;;11.03;70.78;101916.88;4802341;29;68067;-79
2021/11/20 08:47:39;;;;;;;;;13.00;9.50;;;;;10.66;70.73;101857.63;4811354;29;45790;-82
2021/11/20 08:50:08;;;;;;;;;13.75;12.75;;;;;10.93;70.94;101898.16;4816794;29;46377;-83
2021/11/20 08:52:39;;;;;;;;;11.25;11.00;;;;;10.81;70.91;101883.91;4806404;29;45934;-88
2021/11/20 08:55:06;;;;;;;;;12.25;9.00;;;;;10.91;71.04;101903.47;4802937;29;45737;-84
2021/11/20 08:57:31;;;;;;;;;13.00;10.25;;;;;10.81;71.13;101888.28;4803567;29;47563;-78
2021/11/20 08:59:56;;;;;;;;;14.75;12.00;;;;;10.89;71.14;101892.25;4860624;28;46024;-81
2021/11/20 09:02:31;;;;;;;;;12.50;10.50;;;;;10.92;71.09;101899.09;4935520;28;45827;-85
2021/11/20 09:05:19;;;;;;;;;13.50;10.25;;;;;10.90;70.59;101898.34;4943933;28;46192;-82
2021/11/20 09:08:03;;;;;;;;;9.75;9.00;;;;;10.87;70.94;101896.69;4949698;28;45839;-84
2021/11/20 09:10:42;;;;;;;;;12.75;11.25;;;;;10.85;71.13;101885.44;4959704;28;46201;-84
2021/11/20 09:13:42;;;;;;;;;13.00;12.00;;;;;10.83;71.12;101874.19;5011359;28;47371;-84
2021/11/20 09:16:41;;;;;;;;;;;;;;;;;;;;;
2021/11/20 09:19:08;;;;;;;;;12.00;10.75;;;;;10.64;70.69;101831.50;4989106;28;75202;-83
2021/11/20 09:21:38;;;;;;;;;13.50;9.75;;;;;10.73;70.48;101846.78;5005656;28;46191;-83
2021/11/20 09:24:08;;;;;;;;;9.00;8.75;;;;;10.84;70.52;101860.16;5004656;28;46161;-84
2021/11/20 09:26:37;;;;;;;;;9.75;9.50;;;;;10.67;70.58;101825.28;4999973;28;45816;-84
2021/11/20 09:29:08;;;;;;;;;10.50;9.75;;;;;10.72;70.85;101838.97;4986031;28;46560;-87
2021/11/20 09:31:37;;;;;;;;;13.75;13.50;;;;;10.96;70.38;101876.19;5004391;28;45672;-85
2021/11/20 09:34:04;;;;;;;;;13.00;10.75;;;;;10.50;70.68;101782.44;5000850;28;45966;-87
2021/11/20 09:36:30;;;;;;;;;17.50;14.00;;;;;10.59;70.39;101790.72;5007430;28;45924;-83
2021/11/20 09:38:57;;;;;;;;;10.00;9.00;;;;;11.10;70.56;101858.78;5000131;28;46605;-83
2021/11/20 09:41:51;;;;;;;;;18.25;13.25;;;;;10.71;70.42;101792.72;4993284;28;46998;-86
2021/11/20 09:44:17;;;;;;;;;19.50;15.00;;;;;10.98;70.54;101835.84;5005119;28;47274;-84
2021/11/20 09:46:48;;;;;;;;;11.75;10.25;;;;;11.18;70.52;101874.09;5012208;28;46189;-77
2021/11/20 09:49:30;;;;;;;;;16.50;13.00;;;;;11.20;70.69;101859.13;4990767;28;46339;-77
2021/11/20 09:51:56;;;;;;;;;12.50;11.75;;;;;11.11;70.61;101852.63;4999787;28;46281;-76
2021/11/20 09:54:26;;;;;;;;;19.50;16.25;;;;;11.11;70.47;101847.38;4976851;28;45975;-75
2021/11/20 09:57:10;;;;;;;;;15.25;12.25;;;;;11.27;70.53;101861.38;4995534;28;46027;-77
2021/11/20 09:59:38;;;;;;;;;19.50;15.00;;;;;11.22;70.67;101859.91;4990607;28;45682;-77
2021/11/20 10:02:29;;;;;;;;;18.25;16.25;;;;;11.27;70.29;101865.75;5007114;28;46188;-79
2021/11/20 10:05:15;;;;;;;;;19.75;17.75;;;;;11.22;70.10;101841.56;5002258;28;45738;-77
2021/11/20 10:07:44;;;;;;;;;17.50;16.00;;;;;11.29;70.07;101848.16;5003178;28;46286;-78
2021/11/20 10:10:15;;;;;;;;;18.75;18.25;;;;;11.29;69.97;101840.28;4998240;28;46790;-77
2021/11/20 10:12:45;;;;;;;;;19.50;14.50;;;;;11.33;69.87;101852.31;4993065;28;46226;-78
2021/11/20 10:15:25;;;;;;;;;22.00;16.00;;;;;11.34;69.88;101854.84;4998778;28;45976;-79
2021/11/20 10:17:55;;;;;;;;;15.75;13.50;;;;;11.23;69.51;101828.34;4987176;28;46265;-76
2021/11/20 10:20:30;;;;;;;;;19.00;15.00;;;;;11.30;69.60;101840.19;4999069;28;45824;-76
2021/11/20 10:23:05;;;;;;;;;14.25;13.00;;;;;11.24;69.55;101818.69;4998945;28;45973;-77
2021/11/20 10:26:07;;;;;;;;;12.50;12.00;;;;;11.34;69.45;101833.00;4994882;28;45981;-76
2021/11/20 10:28:51;;;;;;;;;17.00;14.75;;;;;11.38;69.38;101842.41;4989070;28;46007;-78
2021/11/20 10:31:24;;;;;;;;;12.50;10.75;;;;;11.40;69.38;101830.03;4970685;28;47580;-79
2021/11/20 10:34:17;;;;;;;;;14.25;12.25;;;;;11.40;69.33;101816.06;4995463;28;45970;-76
2021/11/20 10:36:49;;;;;;;;;15.50;11.25;;;;;11.39;69.26;101807.34;4987145;28;46190;-74
2021/11/20 10:39:45;;;;;;;;;9.75;9.25;;;;;11.32;69.10;101798.16;5000205;28;46383;-78
2021/11/20 10:42:17;;;;;;;;;15.75;14.50;;;;;11.33;69.02;101786.72;4992205;28;45776;-81
2021/11/20 10:44:50;;;;;;;;;15.50;13.25;;;;;11.47;69.01;101810.41;4991150;28;46684;-75
2021/11/20 10:47:16;;;;;;;;;17.50;14.00;;;;;11.46;68.98;101805.25;5005834;28;46320;-75
2021/11/20 10:50:16;;;;;;;;;21.50;18.25;;;;;11.47;68.82;101809.56;4993804;28;46078;-75
2021/11/20 10:53:16;;;;;;;;;25.00;19.00;;;;;11.48;68.96;101809.50;4999679;28;46490;-76
2021/11/20 10:56:00;;;;;;;;;26.00;21.75;;;;;11.50;68.90;101791.84;5005354;28;46299;-76
2021/11/20 10:58:58;;;;;;;;;15.25;14.00;;;;;11.53;68.67;101796.09;5000228;28;47064;-77
2021/11/20 11:01:31;;;;;;;;;20.50;18.25;;;;;11.55;68.38;101794.25;5000980;28;45926;-77
2021/11/20 11:04:12;;;;;;;;;25.00;21.00;;;;;11.55;68.49;101779.31;4998153;28;47740;-75
2021/11/20 11:07:00;;;;;;;;;24.75;18.75;;;;;11.56;68.37;101788.91;4998368;28;47499;-77
2021/11/20 11:09:38;;;;;;;;;25.00;18.00;;;;;11.57;68.34;101780.09;4995196;28;46659;-77
2021/11/20 11:12:10;;;;;;;;;34.00;26.50;;;;;11.60;68.22;101773.84;5001568;28;45730;-76
2021/11/20 11:15:00;;;;;;;;;18.50;16.00;;;;;11.59;68.17;101773.00;5002428;28;46357;-75
2021/11/20 11:18:03;;;;;;;;;23.50;20.25;;;;;11.60;68.22;101763.34;5005913;28;47175;-78
2021/11/20 11:20:56;;;;;;;;;18.00;15.25;;;;;11.57;67.94;101750.38;5001103;28;45907;-77
2021/11/20 11:23:27;;;;;;;;;16.50;14.00;;;;;11.54;68.18;101751.41;4986343;28;45937;-76
2021/11/20 11:25:57;;;;;;;;;20.75;15.50;;;;;11.55;68.24;101750.44;4999572;28;45753;-76
2021/11/20 11:28:27;;;;;;;;;19.75;15.00;;;;;11.56;68.19;101740.81;4994856;28;46022;-73
2021/11/20 11:31:25;;;;;;;;;18.50;15.75;;;;;11.55;68.26;101731.25;4995897;28;46579;-77
2021/11/20 11:34:00;;;;;;;;;15.25;14.00;;;;;11.47;68.21;101713.31;5000621;28;45826;-75
2021/11/20 11:36:37;;;;;;;;;19.50;15.25;;;;;11.46;68.11;101706.38;5007019;28;45844;-79
2021/11/20 11:39:17;;;;;;;;;16.75;14.75;;;;;11.54;68.20;101713.81;4980478;28;46989;-75
2021/11/20 11:42:20;;;;;;;;;17.75;14.00;;;;;11.52;68.19;101707.81;5006091;28;45779;-79
2021/11/20 11:44:59;;;;;;;;;22.75;20.25;;;;;11.54;68.44;101709.41;5002427;28;46039;-78
2021/11/20 11:47:27;;;;;;;;;32.50;25.00;;;;;11.54;68.29;101704.16;4989129;28;47541;-78
2021/11/20 11:50:20;;;;;;;;;38.75;33.00;;;;;11.49;68.31;101698.34;4999407;28;46272;-79
2021/11/20 11:53:26;;;;;;;;;28.75;22.75;;;;;11.45;68.36;101699.44;5005424;28;46145;-81
2021/11/20 11:56:02;;;;;;;;;26.25;22.00;;;;;11.45;68.40;101694.19;5008410;28;46361;-77
2021/11/20 11:58:34;;;;;;;;;26.00;23.75;;;;;11.47;68.39;101699.34;5005617;28;46335;-78
2021/11/20 12:01:06;;;;;;;;;24.75;19.75;;;;;11.48;68.35;101682.69;5002718;28;46827;-78
2021/11/20 12:03:41;;;;;;;;;28.25;22.00;;;;;11.53;68.16;101683.25;5000466;28;45924;-76
2021/11/20 12:06:17;;;;;;;;;27.50;21.00;;;;;11.56;68.05;101689.16;5000326;28;45936;-79
2021/11/20 12:08:47;;;;;;;;;17.25;13.00;;;;;11.57;68.17;101674.25;5002309;28;47481;-79
2021/11/20 12:11:13;;;;;;;;;24.25;21.25;;;;;11.55;68.16;101674.34;4990869;28;46000;-81
2021/11/20 12:13:53;;;;;;;;;27.00;25.00;;;;;11.47;68.31;101649.50;5003730;28;45843;-79
2021/11/20 12:16:18;;;;;;;;;25.75;20.75;;;;;11.59;68.13;101661.91;4989922;28;46161;-78
2021/11/20 12:18:44;;;;;;;;;26.67;22.00;;;;;11.61;68.13;101655.63;5001554;28;46475;-82
2021/11/20 12:21:27;;;;;;;;;21.00;19.25;;;;;11.62;68.15;101659.94;4999476;28;47273;-82
2021/11/20 12:24:13;;;;;;;;;20.00;18.00;;;;;11.65;68.15;101656.31;4996759;28;46430;-80
2021/11/20 12:26:42;;;;;;;;;25.75;23.00;;;;;11.65;67.93;101645.81;4992812;28;46694;-80
2021/11/20 12:29:16;;;;;;;;;24.25;22.25;;;;;11.66;68.01;101648.31;5006845;28;46677;-77
2021/11/20 12:31:47;;;;;;;;;29.50;26.50;;;;;11.68;67.92;101642.97;5003872;28;46172;-82
2021/11/20 12:34:34;;;;;;;;;23.25;21.00;;;;;11.68;67.74;101642.97;5003936;28;45953;-77
2021/11/20 12:37:21;;;;;;;;;26.50;24.00;;;;;11.64;67.92;101638.84;5005508;28;47174;-81
2021/11/20 12:39:58;;;;;;;;;33.75;27.25;;;;;11.64;67.93;101642.34;4996997;28;47456;-81
2021/11/20 12:42:56;;;;;;;;;30.00;24.50;;;;;11.62;67.74;101640.72;4998264;28;46959;-81